sensor_id;sensor_type;location;lat;lon;timestamp;pressure;altitude;pressure_sealevel;temperature
68012;BMP180;54794;48.348;7.878;2022-08-18T00:01:34;98776.00;;;23.90
68012;BMP180;54794;48.348;7.878;2022-08-18T00:04:02;98765.00;;;23.80
68012;BMP180;54794;48.348;7.878;2022-08-18T00:06:49;98771.00;;;23.80
68012;BMP180;54794;48.348;7.878;2022-08-18T00:09:16;98763.00;;;23.80
68012;BMP180;54794;48.348;7.878;2022-08-18T00:11:44;98774.00;;;23.70
68012;BMP180;54794;48.348;7.878;2022-08-18T00:14:16;98764.00;;;23.60
68012;BMP180;54794;48.348;7.878;2022-08-18T00:16:51;98782.00;;;23.70
68012;BMP180;54794;48.348;7.878;2022-08-18T00:19:19;98784.00;;;23.70
68012;BMP180;54794;48.348;7.878;2022-08-18T00:22:07;98774.00;;;23.60
68012;BMP180;54794;48.348;7.878;2022-08-18T00:24:41;98769.00;;;23.60
68012;BMP180;54794;48.348;7.878;2022-08-18T00:27:20;98757.00;;;23.60
68012;BMP180;54794;48.348;7.878;2022-08-18T00:29:50;98761.00;;;23.60
68012;BMP180;54794;48.348;7.878;2022-08-18T00:32:35;98769.00;;;23.60
68012;BMP180;54794;48.348;7.878;2022-08-18T00:35:13;98769.00;;;23.60
68012;BMP180;54794;48.348;7.878;2022-08-18T00:37:41;98751.00;;;23.60
68012;BMP180;54794;48.348;7.878;2022-08-18T00:40:15;98747.00;;;23.60
68012;BMP180;54794;48.348;7.878;2022-08-18T00:42:49;98754.00;;;23.60
68012;BMP180;54794;48.348;7.878;2022-08-18T00:45:24;98750.00;;;23.60
68012;BMP180;54794;48.348;7.878;2022-08-18T00:47:52;98726.00;;;23.60
68012;BMP180;54794;48.348;7.878;2022-08-18T00:50:30;98749.00;;;23.60
68012;BMP180;54794;48.348;7.878;2022-08-18T00:53:11;98743.00;;;23.60
68012;BMP180;54794;48.348;7.878;2022-08-18T00:55:42;98736.00;;;23.60
68012;BMP180;54794;48.348;7.878;2022-08-18T00:58:38;98747.00;;;23.50
68012;BMP180;54794;48.348;7.878;2022-08-18T01:01:10;98750.00;;;23.50
68012;BMP180;54794;48.348;7.878;2022-08-18T01:03:38;98750.00;;;23.50
68012;BMP180;54794;48.348;7.878;2022-08-18T01:06:32;98749.00;;;23.40
68012;BMP180;54794;48.348;7.878;2022-08-18T01:09:00;98750.00;;;23.40
68012;BMP180;54794;48.348;7.878;2022-08-18T01:11:28;98745.00;;;23.40
68012;BMP180;54794;48.348;7.878;2022-08-18T01:13:57;98737.00;;;23.40
68012;BMP180;54794;48.348;7.878;2022-08-18T01:16:24;98741.00;;;23.30
68012;BMP180;54794;48.348;7.878;2022-08-18T01:19:26;98743.00;;;23.30
68012;BMP180;54794;48.348;7.878;2022-08-18T01:25:20;98726.00;;;23.20
68012;BMP180;54794;48.348;7.878;2022-08-18T01:28:06;98745.00;;;23.20
68012;BMP180;54794;48.348;7.878;2022-08-18T01:30:47;98743.00;;;23.20
68012;BMP180;54794;48.348;7.878;2022-08-18T01:33:17;98745.00;;;23.20
68012;BMP180;54794;48.348;7.878;2022-08-18T01:35:47;98744.00;;;23.20
68012;BMP180;54794;48.348;7.878;2022-08-18T01:38:17;98757.00;;;23.20
68012;BMP180;54794;48.348;7.878;2022-08-18T01:40:45;98745.00;;;23.20
68012;BMP180;54794;48.348;7.878;2022-08-18T01:43:34;98731.00;;;23.20
68012;BMP180;54794;48.348;7.878;2022-08-18T01:46:03;98734.00;;;23.20
68012;BMP180;54794;48.348;7.878;2022-08-18T01:48:31;98723.00;;;23.20
68012;BMP180;54794;48.348;7.878;2022-08-18T01:51:03;98736.00;;;23.20
68012;BMP180;54794;48.348;7.878;2022-08-18T01:53:30;98734.00;;;23.20
68012;BMP180;54794;48.348;7.878;2022-08-18T01:55:57;98736.00;;;23.20
68012;BMP180;54794;48.348;7.878;2022-08-18T01:58:24;98723.00;;;23.20
68012;BMP180;54794;48.348;7.878;2022-08-18T02:00:59;98736.00;;;23.20
68012;BMP180;54794;48.348;7.878;2022-08-18T02:03:34;98735.00;;;23.20
68012;BMP180;54794;48.348;7.878;2022-08-18T02:06:07;98728.00;;;23.10
68012;BMP180;54794;48.348;7.878;2022-08-18T02:08:36;98727.00;;;23.10
68012;BMP180;54794;48.348;7.878;2022-08-18T02:11:07;98725.00;;;23.20
68012;BMP180;54794;48.348;7.878;2022-08-18T02:13:35;98723.00;;;23.10
68012;BMP180;54794;48.348;7.878;2022-08-18T02:16:02;98713.00;;;23.10
68012;BMP180;54794;48.348;7.878;2022-08-18T02:18:33;98707.00;;;23.10
68012;BMP180;54794;48.348;7.878;2022-08-18T02:21:18;98701.00;;;23.10
68012;BMP180;54794;48.348;7.878;2022-08-18T02:23:47;98707.00;;;23.10
68012;BMP180;54794;48.348;7.878;2022-08-18T02:26:19;98692.00;;;23.20
68012;BMP180;54794;48.348;7.878;2022-08-18T02:28:46;98696.00;;;23.20
68012;BMP180;54794;48.348;7.878;2022-08-18T02:31:18;98686.00;;;23.20
68012;BMP180;54794;48.348;7.878;2022-08-18T02:33:46;98680.00;;;23.20
68012;BMP180;54794;48.348;7.878;2022-08-18T02:36:19;98690.00;;;23.20
68012;BMP180;54794;48.348;7.878;2022-08-18T02:38:46;98691.00;;;23.10
68012;BMP180;54794;48.348;7.878;2022-08-18T02:41:26;98701.00;;;23.10
68012;BMP180;54794;48.348;7.878;2022-08-18T02:43:56;98676.00;;;23.10
68012;BMP180;54794;48.348;7.878;2022-08-18T02:46:24;98675.00;;;23.10
68012;BMP180;54794;48.348;7.878;2022-08-18T02:48:59;98686.00;;;23.10
68012;BMP180;54794;48.348;7.878;2022-08-18T02:51:26;98687.00;;;23.10
68012;BMP180;54794;48.348;7.878;2022-08-18T02:53:54;98683.00;;;23.10
68012;BMP180;54794;48.348;7.878;2022-08-18T02:56:28;98695.00;;;23.10
68012;BMP180;54794;48.348;7.878;2022-08-18T02:59:10;98682.00;;;23.10
68012;BMP180;54794;48.348;7.878;2022-08-18T03:01:42;98684.00;;;23.10
68012;BMP180;54794;48.348;7.878;2022-08-18T03:04:13;98678.00;;;23.10
68012;BMP180;54794;48.348;7.878;2022-08-18T03:06:42;98674.00;;;23.20
68012;BMP180;54794;48.348;7.878;2022-08-18T03:09:14;98680.00;;;23.10
68012;BMP180;54794;48.348;7.878;2022-08-18T03:11:42;98678.00;;;23.10
68012;BMP180;54794;48.348;7.878;2022-08-18T03:14:10;98677.00;;;23.20
68012;BMP180;54794;48.348;7.878;2022-08-18T03:16:44;98666.00;;;23.10
68012;BMP180;54794;48.348;7.878;2022-08-18T03:19:24;98663.00;;;23.20
68012;BMP180;54794;48.348;7.878;2022-08-18T03:21:52;98692.00;;;23.20
68012;BMP180;54794;48.348;7.878;2022-08-18T03:24:26;98690.00;;;23.20
68012;BMP180;54794;48.348;7.878;2022-08-18T03:26:54;98674.00;;;23.20
68012;BMP180;54794;48.348;7.878;2022-08-18T03:29:25;98679.00;;;23.10
68012;BMP180;54794;48.348;7.878;2022-08-18T03:32:03;98681.00;;;23.10
68012;BMP180;54794;48.348;7.878;2022-08-18T03:34:30;98668.00;;;23.10
68012;BMP180;54794;48.348;7.878;2022-08-18T03:36:58;98666.00;;;23.20
68012;BMP180;54794;48.348;7.878;2022-08-18T03:39:26;98662.00;;;23.20
68012;BMP180;54794;48.348;7.878;2022-08-18T03:41:55;98676.00;;;23.20
68012;BMP180;54794;48.348;7.878;2022-08-18T03:44:34;98673.00;;;23.20
68012;BMP180;54794;48.348;7.878;2022-08-18T03:47:09;98679.00;;;23.20
68012;BMP180;54794;48.348;7.878;2022-08-18T03:49:36;98663.00;;;23.20
68012;BMP180;54794;48.348;7.878;2022-08-18T03:52:08;98668.00;;;23.20
68012;BMP180;54794;48.348;7.878;2022-08-18T03:54:35;98667.00;;;23.20
68012;BMP180;54794;48.348;7.878;2022-08-18T03:57:08;98648.00;;;23.20
68012;BMP180;54794;48.348;7.878;2022-08-18T03:59:36;98657.00;;;23.20
68012;BMP180;54794;48.348;7.878;2022-08-18T04:02:04;98663.00;;;23.30
68012;BMP180;54794;48.348;7.878;2022-08-18T04:04:31;98656.00;;;23.30
68012;BMP180;54794;48.348;7.878;2022-08-18T04:07:05;98662.00;;;23.30
68012;BMP180;54794;48.348;7.878;2022-08-18T04:09:34;98648.00;;;23.30
68012;BMP180;54794;48.348;7.878;2022-08-18T04:12:09;98650.00;;;23.30
68012;BMP180;54794;48.348;7.878;2022-08-18T04:14:45;98664.00;;;23.30
68012;BMP180;54794;48.348;7.878;2022-08-18T04:17:19;98674.00;;;23.30
68012;BMP180;54794;48.348;7.878;2022-08-18T04:19:55;98675.00;;;23.30
68012;BMP180;54794;48.348;7.878;2022-08-18T04:22:23;98678.00;;;23.30
68012;BMP180;54794;48.348;7.878;2022-08-18T04:24:52;98687.00;;;23.40
68012;BMP180;54794;48.348;7.878;2022-08-18T04:27:21;98699.00;;;23.40
68012;BMP180;54794;48.348;7.878;2022-08-18T04:29:49;98701.00;;;23.40
68012;BMP180;54794;48.348;7.878;2022-08-18T04:32:16;98692.00;;;23.40
68012;BMP180;54794;48.348;7.878;2022-08-18T04:34:43;98691.00;;;23.40
68012;BMP180;54794;48.348;7.878;2022-08-18T04:37:10;98709.00;;;23.40
68012;BMP180;54794;48.348;7.878;2022-08-18T04:39:37;98703.00;;;23.40
68012;BMP180;54794;48.348;7.878;2022-08-18T04:42:04;98708.00;;;23.40
68012;BMP180;54794;48.348;7.878;2022-08-18T04:44:32;98707.00;;;23.40
68012;BMP180;54794;48.348;7.878;2022-08-18T04:47:00;98716.00;;;23.40
68012;BMP180;54794;48.348;7.878;2022-08-18T04:49:27;98718.00;;;23.40
68012;BMP180;54794;48.348;7.878;2022-08-18T04:51:56;98730.00;;;23.40
68012;BMP180;54794;48.348;7.878;2022-08-18T04:55:02;98740.00;;;23.30
68012;BMP180;54794;48.348;7.878;2022-08-18T04:57:30;98746.00;;;23.30
68012;BMP180;54794;48.348;7.878;2022-08-18T05:00:01;98741.00;;;23.30
68012;BMP180;54794;48.348;7.878;2022-08-18T05:02:29;98725.00;;;23.30
68012;BMP180;54794;48.348;7.878;2022-08-18T05:04:59;98731.00;;;23.30
68012;BMP180;54794;48.348;7.878;2022-08-18T05:07:28;98734.00;;;23.30
68012;BMP180;54794;48.348;7.878;2022-08-18T05:09:55;98725.00;;;23.30
68012;BMP180;54794;48.348;7.878;2022-08-18T05:12:23;98734.00;;;23.30
68012;BMP180;54794;48.348;7.878;2022-08-18T05:14:53;98736.00;;;23.30
68012;BMP180;54794;48.348;7.878;2022-08-18T05:17:23;98730.00;;;23.30
68012;BMP180;54794;48.348;7.878;2022-08-18T05:19:57;98710.00;;;23.30
68012;BMP180;54794;48.348;7.878;2022-08-18T05:22:26;98711.00;;;23.30
68012;BMP180;54794;48.348;7.878;2022-08-18T05:24:56;98724.00;;;23.30
68012;BMP180;54794;48.348;7.878;2022-08-18T05:27:23;98710.00;;;23.40
68012;BMP180;54794;48.348;7.878;2022-08-18T05:29:50;98716.00;;;23.40
68012;BMP180;54794;48.348;7.878;2022-08-18T05:32:17;98708.00;;;23.40
68012;BMP180;54794;48.348;7.878;2022-08-18T05:35:40;98716.00;;;23.40
68012;BMP180;54794;48.348;7.878;2022-08-18T05:38:12;98717.00;;;23.40
68012;BMP180;54794;48.348;7.878;2022-08-18T05:40:43;98706.00;;;23.50
68012;BMP180;54794;48.348;7.878;2022-08-18T05:43:13;98700.00;;;23.50
68012;BMP180;54794;48.348;7.878;2022-08-18T05:45:42;98694.00;;;23.50
68012;BMP180;54794;48.348;7.878;2022-08-18T05:48:09;98684.00;;;23.50
68012;BMP180;54794;48.348;7.878;2022-08-18T05:50:37;98688.00;;;23.60
68012;BMP180;54794;48.348;7.878;2022-08-18T05:53:13;98698.00;;;23.60
68012;BMP180;54794;48.348;7.878;2022-08-18T05:56:01;98700.00;;;23.60
68012;BMP180;54794;48.348;7.878;2022-08-18T05:58:53;98692.00;;;23.70
68012;BMP180;54794;48.348;7.878;2022-08-18T06:01:33;98702.00;;;23.80
68012;BMP180;54794;48.348;7.878;2022-08-18T06:04:28;98696.00;;;23.80
68012;BMP180;54794;48.348;7.878;2022-08-18T06:07:02;98701.00;;;23.80
68012;BMP180;54794;48.348;7.878;2022-08-18T06:09:56;98712.00;;;23.90
68012;BMP180;54794;48.348;7.878;2022-08-18T06:12:41;98712.00;;;23.90
68012;BMP180;54794;48.348;7.878;2022-08-18T06:15:53;98737.00;;;23.90
68012;BMP180;54794;48.348;7.878;2022-08-18T06:18:46;98750.00;;;24.00
68012;BMP180;54794;48.348;7.878;2022-08-18T06:24:54;98770.00;;;24.00
68012;BMP180;54794;48.348;7.878;2022-08-18T06:30:26;98778.00;;;23.90
68012;BMP180;54794;48.348;7.878;2022-08-18T06:33:42;98781.00;;;23.90
68012;BMP180;54794;48.348;7.878;2022-08-18T06:39:31;98780.00;;;23.90
68012;BMP180;54794;48.348;7.878;2022-08-18T06:42:01;98803.00;;;23.90
68012;BMP180;54794;48.348;7.878;2022-08-18T06:44:49;98807.00;;;23.90
68012;BMP180;54794;48.348;7.878;2022-08-18T06:50:31;98801.00;;;23.80
68012;BMP180;54794;48.348;7.878;2022-08-18T06:53:07;98806.00;;;23.80
68012;BMP180;54794;48.348;7.878;2022-08-18T06:55:52;98795.00;;;23.80
68012;BMP180;54794;48.348;7.878;2022-08-18T06:58:29;98783.00;;;23.80
68012;BMP180;54794;48.348;7.878;2022-08-18T07:01:05;98779.00;;;23.80
68012;BMP180;54794;48.348;7.878;2022-08-18T07:09:19;98782.00;;;23.80
68012;BMP180;54794;48.348;7.878;2022-08-18T07:12:08;98782.00;;;23.80
68012;BMP180;54794;48.348;7.878;2022-08-18T07:14:52;98786.00;;;23.90
68012;BMP180;54794;48.348;7.878;2022-08-18T07:17:33;98775.00;;;23.90
68012;BMP180;54794;48.348;7.878;2022-08-18T07:20:23;98777.00;;;23.90
68012;BMP180;54794;48.348;7.878;2022-08-18T07:23:02;98768.00;;;23.90
68012;BMP180;54794;48.348;7.878;2022-08-18T07:25:43;98760.00;;;23.90
68012;BMP180;54794;48.348;7.878;2022-08-18T07:33:52;98770.00;;;24.00
68012;BMP180;54794;48.348;7.878;2022-08-18T07:36:26;98774.00;;;24.10
68012;BMP180;54794;48.348;7.878;2022-08-18T07:39:09;98765.00;;;24.10
68012;BMP180;54794;48.348;7.878;2022-08-18T07:41:49;98775.00;;;24.10
68012;BMP180;54794;48.348;7.878;2022-08-18T07:44:22;98782.00;;;24.10
68012;BMP180;54794;48.348;7.878;2022-08-18T07:47:04;98779.00;;;24.20
68012;BMP180;54794;48.348;7.878;2022-08-18T07:49:34;98783.00;;;24.20
68012;BMP180;54794;48.348;7.878;2022-08-18T07:52:07;98785.00;;;24.20
68012;BMP180;54794;48.348;7.878;2022-08-18T08:12:42;98766.00;;;24.30
68012;BMP180;54794;48.348;7.878;2022-08-18T08:18:31;98754.00;;;24.40
68012;BMP180;54794;48.348;7.878;2022-08-18T08:21:08;98765.00;;;24.50
68012;BMP180;54794;48.348;7.878;2022-08-18T08:23:51;98802.00;;;24.50
68012;BMP180;54794;48.348;7.878;2022-08-18T08:26:40;98794.00;;;24.60
68012;BMP180;54794;48.348;7.878;2022-08-18T08:32:02;98782.00;;;24.70
68012;BMP180;54794;48.348;7.878;2022-08-18T08:34:46;98763.00;;;24.70
68012;BMP180;54794;48.348;7.878;2022-08-18T08:37:38;98767.00;;;24.80
68012;BMP180;54794;48.348;7.878;2022-08-18T08:40:15;98769.00;;;24.80
68012;BMP180;54794;48.348;7.878;2022-08-18T08:42:50;98760.00;;;24.90
68012;BMP180;54794;48.348;7.878;2022-08-18T08:45:32;98744.00;;;24.90
68012;BMP180;54794;48.348;7.878;2022-08-18T08:48:11;98744.00;;;24.90
68012;BMP180;54794;48.348;7.878;2022-08-18T08:50:52;98734.00;;;24.90
68012;BMP180;54794;48.348;7.878;2022-08-18T08:53:28;98742.00;;;24.90
68012;BMP180;54794;48.348;7.878;2022-08-18T08:56:07;98738.00;;;24.90
68012;BMP180;54794;48.348;7.878;2022-08-18T08:58:58;98741.00;;;24.90
68012;BMP180;54794;48.348;7.878;2022-08-18T09:07:08;98755.00;;;24.90
68012;BMP180;54794;48.348;7.878;2022-08-18T09:24:56;98754.00;;;24.80
68012;BMP180;54794;48.348;7.878;2022-08-18T09:27:44;98773.00;;;24.80
68012;BMP180;54794;48.348;7.878;2022-08-18T09:39:32;98791.00;;;24.90
68012;BMP180;54794;48.348;7.878;2022-08-18T09:45:02;98798.00;;;24.90
68012;BMP180;54794;48.348;7.878;2022-08-18T09:52:57;98786.00;;;24.90
68012;BMP180;54794;48.348;7.878;2022-08-18T09:58:52;98756.00;;;24.90
68012;BMP180;54794;48.348;7.878;2022-08-18T10:06:48;98733.00;;;25.00
68012;BMP180;54794;48.348;7.878;2022-08-18T10:13:19;98709.00;;;25.00
68012;BMP180;54794;48.348;7.878;2022-08-18T10:16:33;98701.00;;;25.10
68012;BMP180;54794;48.348;7.878;2022-08-18T10:22:38;98697.00;;;25.30
68012;BMP180;54794;48.348;7.878;2022-08-18T10:25:09;98707.00;;;25.40
68012;BMP180;54794;48.348;7.878;2022-08-18T10:27:53;98711.00;;;25.50
68012;BMP180;54794;48.348;7.878;2022-08-18T10:33:56;98701.00;;;25.60
68012;BMP180;54794;48.348;7.878;2022-08-18T10:40:22;98677.00;;;25.90
68012;BMP180;54794;48.348;7.878;2022-08-18T10:43:17;98668.00;;;26.00
68012;BMP180;54794;48.348;7.878;2022-08-18T10:46:14;98693.00;;;26.20
68012;BMP180;54794;48.348;7.878;2022-08-18T10:49:19;98696.00;;;26.30
68012;BMP180;54794;48.348;7.878;2022-08-18T11:01:24;98703.00;;;26.80
68012;BMP180;54794;48.348;7.878;2022-08-18T11:04:28;98706.00;;;26.80
68012;BMP180;54794;48.348;7.878;2022-08-18T11:07:13;98695.00;;;26.90
68012;BMP180;54794;48.348;7.878;2022-08-18T11:09:48;98686.00;;;27.00
68012;BMP180;54794;48.348;7.878;2022-08-18T11:15:25;98676.00;;;27.00
68012;BMP180;54794;48.348;7.878;2022-08-18T11:18:16;98672.00;;;27.10
68012;BMP180;54794;48.348;7.878;2022-08-18T11:20:45;98667.00;;;27.00
68012;BMP180;54794;48.348;7.878;2022-08-18T11:23:16;98663.00;;;27.10
68012;BMP180;54794;48.348;7.878;2022-08-18T11:25:45;98653.00;;;27.10
68012;BMP180;54794;48.348;7.878;2022-08-18T11:28:21;98664.00;;;27.10
68012;BMP180;54794;48.348;7.878;2022-08-18T11:30:57;98658.00;;;27.10
68012;BMP180;54794;48.348;7.878;2022-08-18T11:33:26;98650.00;;;27.10
68012;BMP180;54794;48.348;7.878;2022-08-18T11:35:57;98637.00;;;27.10
68012;BMP180;54794;48.348;7.878;2022-08-18T11:38:28;98646.00;;;27.20
68012;BMP180;54794;48.348;7.878;2022-08-18T11:41:18;98646.00;;;27.20
68012;BMP180;54794;48.348;7.878;2022-08-18T11:43:46;98637.00;;;27.20
68012;BMP180;54794;48.348;7.878;2022-08-18T11:48:56;98657.00;;;27.20
68012;BMP180;54794;48.348;7.878;2022-08-18T11:51:31;98660.00;;;27.20
68012;BMP180;54794;48.348;7.878;2022-08-18T11:54:21;98661.00;;;27.20
68012;BMP180;54794;48.348;7.878;2022-08-18T12:09:20;98658.00;;;27.20
68012;BMP180;54794;48.348;7.878;2022-08-18T12:12:27;98657.00;;;27.30
68012;BMP180;54794;48.348;7.878;2022-08-18T12:15:24;98660.00;;;27.30
68012;BMP180;54794;48.348;7.878;2022-08-18T12:18:10;98664.00;;;27.30
68012;BMP180;54794;48.348;7.878;2022-08-18T12:20:56;98649.00;;;27.40
68012;BMP180;54794;48.348;7.878;2022-08-18T12:23:24;98664.00;;;27.40
68012;BMP180;54794;48.348;7.878;2022-08-18T12:25:51;98659.00;;;27.40
68012;BMP180;54794;48.348;7.878;2022-08-18T12:28:19;98656.00;;;27.50
68012;BMP180;54794;48.348;7.878;2022-08-18T12:30:48;98650.00;;;27.50
68012;BMP180;54794;48.348;7.878;2022-08-18T12:33:35;98646.00;;;27.50
68012;BMP180;54794;48.348;7.878;2022-08-18T12:36:23;98645.00;;;27.60
68012;BMP180;54794;48.348;7.878;2022-08-18T12:38:55;98645.00;;;27.60
68012;BMP180;54794;48.348;7.878;2022-08-18T12:41:23;98621.00;;;27.70
68012;BMP180;54794;48.348;7.878;2022-08-18T12:43:50;98627.00;;;27.80
68012;BMP180;54794;48.348;7.878;2022-08-18T12:46:40;98631.00;;;27.80
68012;BMP180;54794;48.348;7.878;2022-08-18T12:49:35;98628.00;;;27.90
68012;BMP180;54794;48.348;7.878;2022-08-18T12:52:03;98634.00;;;28.00
68012;BMP180;54794;48.348;7.878;2022-08-18T12:54:33;98637.00;;;28.10
68012;BMP180;54794;48.348;7.878;2022-08-18T12:57:27;98638.00;;;28.20
68012;BMP180;54794;48.348;7.878;2022-08-18T13:00:14;98638.00;;;28.20
68012;BMP180;54794;48.348;7.878;2022-08-18T13:02:44;98632.00;;;28.30
68012;BMP180;54794;48.348;7.878;2022-08-18T13:05:11;98629.00;;;28.20
68012;BMP180;54794;48.348;7.878;2022-08-18T13:07:38;98623.00;;;28.30
68012;BMP180;54794;48.348;7.878;2022-08-18T13:10:05;98622.00;;;28.30
68012;BMP180;54794;48.348;7.878;2022-08-18T13:12:47;98611.00;;;28.40
68012;BMP180;54794;48.348;7.878;2022-08-18T13:15:15;98611.00;;;28.50
68012;BMP180;54794;48.348;7.878;2022-08-18T13:17:45;98594.00;;;28.50
68012;BMP180;54794;48.348;7.878;2022-08-18T13:20:16;98604.00;;;28.60
68012;BMP180;54794;48.348;7.878;2022-08-18T13:22:43;98602.00;;;28.60
68012;BMP180;54794;48.348;7.878;2022-08-18T13:25:14;98593.00;;;28.60
68012;BMP180;54794;48.348;7.878;2022-08-18T13:27:58;98594.00;;;28.70
68012;BMP180;54794;48.348;7.878;2022-08-18T13:30:28;98576.00;;;28.70
68012;BMP180;54794;48.348;7.878;2022-08-18T13:33:02;98591.00;;;28.70
68012;BMP180;54794;48.348;7.878;2022-08-18T13:35:52;98602.00;;;28.90
68012;BMP180;54794;48.348;7.878;2022-08-18T13:38:22;98597.00;;;28.80
68012;BMP180;54794;48.348;7.878;2022-08-18T13:40:57;98589.00;;;28.90
68012;BMP180;54794;48.348;7.878;2022-08-18T13:43:33;98576.00;;;29.00
68012;BMP180;54794;48.348;7.878;2022-08-18T13:46:04;98592.00;;;29.00
68012;BMP180;54794;48.348;7.878;2022-08-18T13:48:32;98588.00;;;29.00
68012;BMP180;54794;48.348;7.878;2022-08-18T13:51:01;98589.00;;;29.10
68012;BMP180;54794;48.348;7.878;2022-08-18T13:53:30;98584.00;;;29.20
68012;BMP180;54794;48.348;7.878;2022-08-18T13:55:57;98598.00;;;29.20
68012;BMP180;54794;48.348;7.878;2022-08-18T13:58:28;98598.00;;;29.20
68012;BMP180;54794;48.348;7.878;2022-08-18T14:00:59;98595.00;;;29.30
68012;BMP180;54794;48.348;7.878;2022-08-18T14:03:48;98603.00;;;29.40
68012;BMP180;54794;48.348;7.878;2022-08-18T14:06:16;98596.00;;;29.40
68012;BMP180;54794;48.348;7.878;2022-08-18T14:08:52;98594.00;;;29.40
68012;BMP180;54794;48.348;7.878;2022-08-18T14:11:26;98597.00;;;29.50
68012;BMP180;54794;48.348;7.878;2022-08-18T14:13:59;98603.00;;;29.50
68012;BMP180;54794;48.348;7.878;2022-08-18T14:16:27;98609.00;;;29.50
68012;BMP180;54794;48.348;7.878;2022-08-18T14:18:56;98610.00;;;29.50
68012;BMP180;54794;48.348;7.878;2022-08-18T14:21:49;98605.00;;;29.50
68012;BMP180;54794;48.348;7.878;2022-08-18T14:24:39;98618.00;;;29.50
68012;BMP180;54794;48.348;7.878;2022-08-18T14:27:31;98605.00;;;29.40
68012;BMP180;54794;48.348;7.878;2022-08-18T14:30:10;98602.00;;;29.40
68012;BMP180;54794;48.348;7.878;2022-08-18T14:32:40;98608.00;;;29.40
68012;BMP180;54794;48.348;7.878;2022-08-18T14:35:15;98606.00;;;29.40
68012;BMP180;54794;48.348;7.878;2022-08-18T14:38:03;98603.00;;;29.40
68012;BMP180;54794;48.348;7.878;2022-08-18T14:40:31;98607.00;;;29.40
68012;BMP180;54794;48.348;7.878;2022-08-18T14:42:59;98609.00;;;29.40
68012;BMP180;54794;48.348;7.878;2022-08-18T14:45:32;98602.00;;;29.30
68012;BMP180;54794;48.348;7.878;2022-08-18T14:48:03;98608.00;;;29.30
68012;BMP180;54794;48.348;7.878;2022-08-18T14:50:34;98608.00;;;29.20
68012;BMP180;54794;48.348;7.878;2022-08-18T14:53:03;98606.00;;;29.20
68012;BMP180;54794;48.348;7.878;2022-08-18T14:55:30;98606.00;;;29.20
68012;BMP180;54794;48.348;7.878;2022-08-18T14:58:00;98605.00;;;29.10
68012;BMP180;54794;48.348;7.878;2022-08-18T15:00:27;98604.00;;;29.00
68012;BMP180;54794;48.348;7.878;2022-08-18T15:02:55;98605.00;;;29.00
68012;BMP180;54794;48.348;7.878;2022-08-18T15:05:26;98613.00;;;29.00
68012;BMP180;54794;48.348;7.878;2022-08-18T15:08:01;98599.00;;;29.00
68012;BMP180;54794;48.348;7.878;2022-08-18T15:10:31;98601.00;;;29.00
68012;BMP180;54794;48.348;7.878;2022-08-18T15:12:58;98608.00;;;28.90
68012;BMP180;54794;48.348;7.878;2022-08-18T15:15:27;98604.00;;;28.90
68012;BMP180;54794;48.348;7.878;2022-08-18T15:18:14;98612.00;;;28.80
68012;BMP180;54794;48.348;7.878;2022-08-18T15:20:50;98610.00;;;28.80
68012;BMP180;54794;48.348;7.878;2022-08-18T15:23:45;98605.00;;;28.80
68012;BMP180;54794;48.348;7.878;2022-08-18T15:26:40;98615.00;;;28.70
68012;BMP180;54794;48.348;7.878;2022-08-18T15:29:11;98620.00;;;28.70
68012;BMP180;54794;48.348;7.878;2022-08-18T15:31:40;98614.00;;;28.70
68012;BMP180;54794;48.348;7.878;2022-08-18T15:34:16;98623.00;;;28.60
68012;BMP180;54794;48.348;7.878;2022-08-18T15:36:47;98617.00;;;28.60
68012;BMP180;54794;48.348;7.878;2022-08-18T15:39:15;98606.00;;;28.60
68012;BMP180;54794;48.348;7.878;2022-08-18T15:41:45;98617.00;;;28.60
68012;BMP180;54794;48.348;7.878;2022-08-18T15:44:20;98617.00;;;28.50
68012;BMP180;54794;48.348;7.878;2022-08-18T15:46:48;98615.00;;;28.50
68012;BMP180;54794;48.348;7.878;2022-08-18T15:49:20;98615.00;;;28.50
68012;BMP180;54794;48.348;7.878;2022-08-18T15:51:49;98616.00;;;28.50
68012;BMP180;54794;48.348;7.878;2022-08-18T15:54:18;98600.00;;;28.50
68012;BMP180;54794;48.348;7.878;2022-08-18T15:56:46;98613.00;;;28.50
68012;BMP180;54794;48.348;7.878;2022-08-18T15:59:26;98610.00;;;28.50
68012;BMP180;54794;48.348;7.878;2022-08-18T16:02:05;98606.00;;;28.50
68012;BMP180;54794;48.348;7.878;2022-08-18T16:04:38;98611.00;;;28.50
68012;BMP180;54794;48.348;7.878;2022-08-18T16:07:08;98615.00;;;28.50
68012;BMP180;54794;48.348;7.878;2022-08-18T16:09:35;98614.00;;;28.50
68012;BMP180;54794;48.348;7.878;2022-08-18T16:12:03;98600.00;;;28.50
68012;BMP180;54794;48.348;7.878;2022-08-18T16:14:30;98607.00;;;28.40
68012;BMP180;54794;48.348;7.878;2022-08-18T16:16:57;98615.00;;;28.40
68012;BMP180;54794;48.348;7.878;2022-08-18T16:19:26;98615.00;;;28.40
68012;BMP180;54794;48.348;7.878;2022-08-18T16:21:57;98607.00;;;28.50
68012;BMP180;54794;48.348;7.878;2022-08-18T16:24:24;98610.00;;;28.40
68012;BMP180;54794;48.348;7.878;2022-08-18T16:26:51;98603.00;;;28.40
68012;BMP180;54794;48.348;7.878;2022-08-18T16:29:18;98610.00;;;28.40
68012;BMP180;54794;48.348;7.878;2022-08-18T16:31:45;98607.00;;;28.40
68012;BMP180;54794;48.348;7.878;2022-08-18T16:34:12;98619.00;;;28.40
68012;BMP180;54794;48.348;7.878;2022-08-18T16:36:39;98605.00;;;28.40
68012;BMP180;54794;48.348;7.878;2022-08-18T16:39:06;98608.00;;;28.40
68012;BMP180;54794;48.348;7.878;2022-08-18T16:41:34;98605.00;;;28.30
68012;BMP180;54794;48.348;7.878;2022-08-18T16:44:01;98599.00;;;28.30
68012;BMP180;54794;48.348;7.878;2022-08-18T16:46:28;98597.00;;;28.30
68012;BMP180;54794;48.348;7.878;2022-08-18T16:48:57;98604.00;;;28.30
68012;BMP180;54794;48.348;7.878;2022-08-18T16:51:27;98595.00;;;28.30
68012;BMP180;54794;48.348;7.878;2022-08-18T16:53:54;98598.00;;;28.30
68012;BMP180;54794;48.348;7.878;2022-08-18T16:56:27;98596.00;;;28.20
68012;BMP180;54794;48.348;7.878;2022-08-18T16:58:54;98586.00;;;28.20
68012;BMP180;54794;48.348;7.878;2022-08-18T17:01:41;98586.00;;;28.20
68012;BMP180;54794;48.348;7.878;2022-08-18T17:04:30;98581.00;;;28.10
68012;BMP180;54794;48.348;7.878;2022-08-18T17:07:04;98582.00;;;28.10
68012;BMP180;54794;48.348;7.878;2022-08-18T17:09:33;98577.00;;;28.10
68012;BMP180;54794;48.348;7.878;2022-08-18T17:12:01;98581.00;;;28.20
68012;BMP180;54794;48.348;7.878;2022-08-18T17:14:30;98587.00;;;28.20